createdAt,value
2019-05-20T00:00:03.642Z,16.00
2019-05-20T00:02:29.951Z,15.99
2019-05-20T00:04:56.295Z,15.98
2019-05-20T00:07:22.645Z,15.93
2019-05-20T00:09:48.998Z,15.80
2019-05-20T00:12:15.324Z,15.82
2019-05-20T00:14:41.700Z,15.83
2019-05-20T00:17:07.981Z,15.85
2019-05-20T00:19:34.324Z,16.02
2019-05-20T00:22:00.659Z,16.10
2019-05-20T00:24:29.769Z,16.06
2019-05-20T00:26:56.110Z,15.98
2019-05-20T00:29:22.422Z,16.14
2019-05-20T00:31:48.765Z,16.25
2019-05-20T00:34:15.076Z,16.15
2019-05-20T00:36:41.405Z,16.06
2019-05-20T00:39:07.725Z,15.95
2019-05-20T00:41:34.042Z,15.95
2019-05-20T00:44:00.393Z,15.91
2019-05-20T00:46:26.693Z,15.95
2019-05-20T00:48:53.031Z,16.02
2019-05-20T00:51:19.385Z,15.99
2019-05-20T00:53:45.689Z,15.93
2019-05-20T00:56:12.022Z,15.90
2019-05-20T00:58:38.355Z,15.73
2019-05-20T01:01:04.703Z,15.65
2019-05-20T01:03:31.000Z,15.72
2019-05-20T01:05:57.314Z,15.76
2019-05-20T01:08:23.635Z,15.79
2019-05-20T01:10:50.014Z,15.74
2019-05-20T01:13:16.369Z,15.66
2019-05-20T01:15:42.658Z,15.63
2019-05-20T01:18:08.998Z,15.68
2019-05-20T01:20:35.339Z,15.73
2019-05-20T01:23:01.640Z,15.76
2019-05-20T01:25:27.984Z,15.72
2019-05-20T01:27:54.298Z,15.68
2019-05-20T01:30:20.636Z,15.68
2019-05-20T01:32:46.945Z,15.64
2019-05-20T01:35:13.271Z,15.74
2019-05-20T01:37:39.575Z,15.69
2019-05-20T01:40:05.886Z,15.53
2019-05-20T01:42:32.228Z,15.57
2019-05-20T01:44:58.527Z,15.70
2019-05-20T01:47:24.863Z,15.77
2019-05-20T01:49:51.199Z,15.80
2019-05-20T01:52:17.532Z,15.70
2019-05-20T01:54:43.884Z,15.63
2019-05-20T01:57:10.207Z,15.58
2019-05-20T01:59:36.537Z,15.56
2019-05-20T02:02:02.845Z,15.66
2019-05-20T02:04:29.173Z,15.72
2019-05-20T02:06:55.480Z,15.63
2019-05-20T02:09:21.789Z,15.62
2019-05-20T02:11:48.120Z,15.57
2019-05-20T02:14:14.424Z,15.51
2019-05-20T02:16:40.746Z,15.52
2019-05-20T02:19:07.080Z,15.59
2019-05-20T02:21:33.380Z,15.43
2019-05-20T02:23:59.711Z,15.24
2019-05-20T02:26:26.036Z,15.22
2019-05-20T02:28:52.348Z,15.10
2019-05-20T02:31:18.691Z,15.07
2019-05-20T02:33:51.826Z,15.00
2019-05-20T02:36:11.293Z,14.91
2019-05-20T02:38:37.610Z,14.82
2019-05-20T02:41:03.946Z,14.76
2019-05-20T02:43:30.249Z,14.80
2019-05-20T02:45:56.585Z,14.80
2019-05-20T02:48:22.901Z,14.79
2019-05-20T02:50:49.223Z,14.73
2019-05-20T02:53:15.529Z,14.75
2019-05-20T02:55:41.863Z,14.79
2019-05-20T02:58:08.178Z,14.82
2019-05-20T03:00:34.490Z,14.83
2019-05-20T03:03:00.853Z,14.80
2019-05-20T03:05:27.130Z,14.84
2019-05-20T03:07:53.470Z,14.88
2019-05-20T03:10:19.814Z,14.87
2019-05-20T03:12:46.102Z,14.90
2019-05-20T03:15:12.409Z,14.91
2019-05-20T03:17:38.729Z,14.87
2019-05-20T03:20:05.064Z,14.83
2019-05-20T03:22:31.360Z,14.84
2019-05-20T03:24:57.689Z,14.87
2019-05-20T03:27:24.018Z,14.87
2019-05-20T03:29:50.327Z,14.90
2019-05-20T03:32:16.646Z,14.94
2019-05-20T03:34:50.623Z,15.01
2019-05-20T03:37:09.370Z,15.12
2019-05-20T03:39:35.718Z,15.09
2019-05-20T03:42:02.024Z,15.13
2019-05-20T03:44:28.347Z,15.13
2019-05-20T03:46:54.657Z,15.17
2019-05-20T03:49:20.978Z,15.24
2019-05-20T03:51:47.284Z,15.24
2019-05-20T03:54:13.615Z,15.29
2019-05-20T03:56:39.943Z,15.37
2019-05-20T03:59:06.251Z,15.40
2019-05-20T04:01:32.579Z,15.41
2019-05-20T04:03:58.893Z,15.45
2019-05-20T04:06:25.199Z,15.45
2019-05-20T04:08:51.530Z,15.55
2019-05-20T04:11:17.834Z,15.69
2019-05-20T04:13:44.159Z,15.78
2019-05-20T04:16:10.483Z,15.83
2019-05-20T04:18:36.787Z,15.93
2019-05-20T04:21:03.114Z,15.94
2019-05-20T04:23:29.429Z,15.99
2019-05-20T04:25:55.808Z,16.07
2019-05-20T04:28:22.121Z,16.12
2019-05-20T04:30:48.472Z,16.18
2019-05-20T04:33:14.793Z,16.28
2019-05-20T04:35:41.107Z,16.37
2019-05-20T04:38:07.441Z,16.45
2019-05-20T04:40:33.753Z,16.47
2019-05-20T04:43:00.083Z,16.47
2019-05-20T04:45:26.406Z,16.55
2019-05-20T04:47:52.728Z,16.51
2019-05-20T04:50:19.050Z,16.59
2019-05-20T04:52:45.512Z,16.64
2019-05-20T04:55:11.821Z,16.69
2019-05-20T04:57:38.161Z,16.85
2019-05-20T05:00:04.483Z,16.91
2019-05-20T05:02:30.815Z,17.21
2019-05-20T05:04:57.124Z,17.38
2019-05-20T05:07:23.451Z,17.64
2019-05-20T05:09:49.762Z,17.83
2019-05-20T05:12:16.091Z,17.83
2019-05-20T05:14:42.458Z,17.77
2019-05-20T05:17:08.746Z,17.68
2019-05-20T05:19:35.086Z,17.68
2019-05-20T05:22:01.440Z,17.84
2019-05-20T05:24:27.757Z,18.17
2019-05-20T05:26:54.111Z,18.13
2019-05-20T05:29:20.420Z,18.29
2019-05-20T05:31:46.732Z,18.56
2019-05-20T05:34:13.167Z,18.51
2019-05-20T05:36:39.472Z,18.67
2019-05-20T05:39:05.768Z,18.68
2019-05-20T05:41:32.098Z,18.69
2019-05-20T05:43:58.397Z,18.97
2019-05-20T05:46:24.734Z,18.96
2019-05-20T05:48:51.047Z,18.85
2019-05-20T05:51:17.382Z,18.68
2019-05-20T05:53:43.804Z,18.66
2019-05-20T05:56:10.108Z,18.84
2019-05-20T05:58:42.408Z,19.01
2019-05-20T06:01:06.762Z,19.18
2019-05-20T06:03:33.062Z,19.28
2019-05-20T06:06:11.398Z,19.17
2019-05-20T06:08:25.703Z,19.02
2019-05-20T06:10:52.028Z,19.48
2019-05-20T06:13:18.375Z,20.56
2019-05-20T06:15:44.673Z,21.24
2019-05-20T06:18:11.443Z,20.72
2019-05-20T06:20:37.760Z,20.55
2019-05-20T06:23:04.102Z,20.24
2019-05-20T06:25:30.427Z,20.50
2019-05-20T06:27:56.741Z,21.15
2019-05-20T06:30:23.046Z,20.76
2019-05-20T06:32:49.352Z,20.36
2019-05-20T06:35:15.746Z,19.82
2019-05-20T06:37:42.052Z,19.73
2019-05-20T06:40:08.383Z,20.24
2019-05-20T06:42:34.698Z,21.16
2019-05-20T06:45:01.028Z,20.60
2019-05-20T06:47:27.346Z,20.07
2019-05-20T06:49:53.732Z,19.63
2019-05-20T06:52:34.836Z,20.01
2019-05-20T06:54:47.055Z,21.08
2019-05-20T06:57:13.477Z,21.34
2019-05-20T06:59:39.710Z,21.83
2019-05-20T07:02:06.041Z,22.06
2019-05-20T07:04:32.344Z,21.68
2019-05-20T07:06:58.674Z,21.19
2019-05-20T07:09:24.981Z,20.52
2019-05-20T07:11:53.101Z,20.93
2019-05-20T07:14:17.610Z,20.78
2019-05-20T07:16:43.915Z,21.58
2019-05-20T07:19:10.258Z,21.61
2019-05-20T07:21:36.582Z,21.47
2019-05-20T07:24:02.903Z,22.24
2019-05-20T07:26:29.216Z,22.80
2019-05-20T07:28:55.567Z,23.46
2019-05-20T07:31:21.898Z,24.22
2019-05-20T07:33:48.233Z,24.45
2019-05-20T07:36:14.572Z,24.85
2019-05-20T07:38:40.912Z,25.03
2019-05-20T07:41:07.243Z,25.38
2019-05-20T07:43:33.583Z,25.44
2019-05-20T07:45:59.892Z,25.18
2019-05-20T07:48:26.242Z,25.23
2019-05-20T07:50:52.572Z,24.89
2019-05-20T07:53:18.881Z,24.98
2019-05-20T07:55:45.209Z,24.98
2019-05-20T07:58:11.544Z,25.67
2019-05-20T08:00:37.862Z,25.73
2019-05-20T08:03:04.164Z,26.09
2019-05-20T08:05:30.504Z,26.82
2019-05-20T08:07:56.827Z,27.05
2019-05-20T08:10:23.149Z,26.82
2019-05-20T08:12:49.454Z,26.06
2019-05-20T08:15:15.766Z,26.16
2019-05-20T08:17:42.105Z,26.61
2019-05-20T08:20:08.412Z,26.81
2019-05-20T08:22:34.741Z,27.25
2019-05-20T08:25:01.067Z,26.93
2019-05-20T08:27:27.401Z,27.36
2019-05-20T08:29:53.726Z,26.80
2019-05-20T08:32:20.031Z,26.61
2019-05-20T08:34:46.363Z,26.37
2019-05-20T08:37:12.670Z,25.84
2019-05-20T08:39:38.985Z,26.12
2019-05-20T08:42:05.312Z,26.23
2019-05-20T08:44:31.648Z,26.18
2019-05-20T08:46:57.964Z,26.67
2019-05-20T08:49:24.289Z,27.18
2019-05-20T08:51:50.589Z,26.72
2019-05-20T08:54:16.994Z,26.28
2019-05-20T08:56:43.353Z,26.27
2019-05-20T08:59:09.679Z,25.96
2019-05-20T09:01:36.000Z,25.69
2019-05-20T09:04:02.333Z,25.97
2019-05-20T09:06:28.638Z,26.03
2019-05-20T09:08:54.970Z,25.72
2019-05-20T09:11:21.395Z,25.69
2019-05-20T09:13:47.653Z,25.75
2019-05-20T09:16:13.978Z,26.36
2019-05-20T09:18:40.305Z,26.38
2019-05-20T09:21:06.696Z,26.59
2019-05-20T09:23:33.000Z,26.74
2019-05-20T09:25:59.302Z,27.57
2019-05-20T09:28:25.597Z,27.52
2019-05-20T09:30:51.925Z,27.24
2019-05-20T09:33:18.228Z,27.51
2019-05-20T09:35:44.739Z,27.31
2019-05-20T09:38:20.269Z,26.69
2019-05-20T09:40:37.233Z,26.09
2019-05-20T09:43:03.556Z,26.19
2019-05-20T09:45:29.876Z,25.80
2019-05-20T09:47:56.202Z,25.11
2019-05-20T09:50:22.504Z,25.17
2019-05-20T09:52:48.841Z,25.24
2019-05-20T09:55:15.146Z,24.58
2019-05-20T09:57:41.453Z,24.45
2019-05-20T10:00:07.782Z,24.58
2019-05-20T10:02:38.040Z,24.60
2019-05-20T10:05:00.532Z,24.30
2019-05-20T10:07:26.854Z,24.04
2019-05-20T10:09:53.162Z,24.14
2019-05-20T10:12:19.493Z,24.38
2019-05-20T10:14:45.869Z,24.62
2019-05-20T10:17:12.194Z,24.83
2019-05-20T10:19:38.507Z,24.62
2019-05-20T10:22:04.909Z,24.41
2019-05-20T10:24:31.183Z,24.21
2019-05-20T10:26:57.509Z,24.12
2019-05-20T10:29:23.832Z,23.92
2019-05-20T10:31:50.137Z,23.73
2019-05-20T10:34:16.479Z,23.55
2019-05-20T10:36:42.814Z,23.44
2019-05-20T10:39:09.134Z,23.30
2019-05-20T10:41:35.444Z,22.99
2019-05-20T10:44:01.778Z,22.64
2019-05-20T10:46:28.105Z,22.35
2019-05-20T10:48:54.407Z,21.77
2019-05-20T10:51:20.746Z,21.30
2019-05-20T10:53:47.075Z,21.07
2019-05-20T10:56:13.790Z,20.83
2019-05-20T10:58:39.809Z,20.72
2019-05-20T11:01:06.152Z,20.62
2019-05-20T11:03:32.450Z,20.85
2019-05-20T11:05:58.759Z,21.00
2019-05-20T11:08:25.089Z,21.19
2019-05-20T11:10:51.443Z,21.45
2019-05-20T11:13:17.740Z,21.34
2019-05-20T11:15:44.072Z,21.36
2019-05-20T11:18:10.373Z,21.25
2019-05-20T11:20:36.706Z,21.08
2019-05-20T11:23:03.010Z,20.99
2019-05-20T11:25:29.334Z,20.97
2019-05-20T11:27:55.664Z,20.92
2019-05-20T11:30:22.216Z,20.84
2019-05-20T11:32:48.543Z,20.87
2019-05-20T11:35:14.853Z,20.89
2019-05-20T11:37:41.183Z,20.92
2019-05-20T11:40:07.674Z,20.99
2019-05-20T11:42:33.871Z,21.02
2019-05-20T11:45:00.197Z,21.01
2019-05-20T11:47:26.507Z,20.99
2019-05-20T11:49:52.830Z,20.92
2019-05-20T11:52:19.128Z,20.81
2019-05-20T11:54:45.460Z,20.77
2019-05-20T11:57:11.766Z,20.73
2019-05-20T11:59:38.106Z,20.65
2019-05-20T12:02:04.466Z,20.67
2019-05-20T12:04:30.745Z,20.69
2019-05-20T12:06:57.075Z,20.73
2019-05-20T12:09:23.387Z,20.70
2019-05-20T12:11:49.733Z,20.59
2019-05-20T12:14:16.056Z,20.27
2019-05-20T12:16:42.368Z,20.01
2019-05-20T12:19:08.673Z,19.92
2019-05-20T12:21:35.010Z,19.83
2019-05-20T12:24:01.345Z,19.76
2019-05-20T12:26:27.696Z,19.65
2019-05-20T12:28:53.999Z,19.57
2019-05-20T12:31:20.301Z,19.50
2019-05-20T12:33:46.605Z,19.47
2019-05-20T12:36:12.934Z,19.51
2019-05-20T12:38:39.240Z,19.59
2019-05-20T12:41:05.576Z,19.52
2019-05-20T12:43:31.891Z,18.98
2019-05-20T12:45:58.196Z,18.51
2019-05-20T12:48:24.530Z,17.98
2019-05-20T12:50:50.833Z,17.67
2019-05-20T12:53:17.154Z,17.36
2019-05-20T12:55:43.473Z,17.30
2019-05-20T12:58:09.801Z,17.37
2019-05-20T13:00:36.109Z,17.47
2019-05-20T13:03:02.424Z,17.66
2019-05-20T13:05:28.748Z,17.73
2019-05-20T13:07:55.074Z,17.79
2019-05-20T13:10:31.652Z,17.67
2019-05-20T13:12:47.699Z,17.65
2019-05-20T13:15:14.028Z,17.71
2019-05-20T13:17:44.177Z,17.81
2019-05-20T13:20:06.669Z,17.86
2019-05-20T13:22:32.991Z,17.85
2019-05-20T13:24:59.293Z,17.95
2019-05-20T13:27:25.633Z,17.93
2019-05-20T13:29:51.940Z,17.93
2019-05-20T13:32:18.258Z,17.99
2019-05-20T13:34:44.577Z,18.02
2019-05-20T13:37:10.901Z,18.16
2019-05-20T13:39:37.204Z,18.23
2019-05-20T13:42:03.507Z,18.31
2019-05-20T13:44:29.831Z,18.42
2019-05-20T13:46:56.170Z,18.58
2019-05-20T13:49:22.493Z,18.79
2019-05-20T13:51:48.815Z,19.00
2019-05-20T13:54:15.117Z,19.06
2019-05-20T13:56:41.443Z,19.02
2019-05-20T13:59:07.743Z,19.05
2019-05-20T14:01:34.051Z,19.08
2019-05-20T14:04:00.380Z,19.17
2019-05-20T14:06:26.735Z,19.21
2019-05-20T14:08:53.064Z,19.22
2019-05-20T14:11:32.562Z,19.27
2019-05-20T14:13:45.697Z,19.35
2019-05-20T14:16:12.005Z,19.53
2019-05-20T14:18:38.336Z,19.67
2019-05-20T14:21:04.655Z,19.78
2019-05-20T14:23:31.007Z,19.72
2019-05-20T14:25:57.337Z,19.72
2019-05-20T14:28:23.653Z,19.79
2019-05-20T14:30:49.952Z,19.65
2019-05-20T14:33:16.283Z,19.13
2019-05-20T14:35:42.591Z,18.71
2019-05-20T14:38:08.919Z,18.60
2019-05-20T14:40:35.238Z,18.82
2019-05-20T14:43:01.551Z,18.99
2019-05-20T14:45:27.891Z,19.11
2019-05-20T14:47:54.209Z,19.09
2019-05-20T14:50:20.519Z,19.08
2019-05-20T14:52:46.824Z,19.07
2019-05-20T14:55:13.199Z,19.09
2019-05-20T14:57:39.449Z,18.88
2019-05-20T15:00:05.755Z,18.56
2019-05-20T15:02:32.103Z,18.22
2019-05-20T15:04:58.407Z,17.95
2019-05-20T15:07:30.307Z,17.78
2019-05-20T15:09:51.108Z,17.60
2019-05-20T15:12:17.417Z,17.49
2019-05-20T15:14:43.754Z,17.33
2019-05-20T15:17:10.061Z,17.18
2019-05-20T15:19:36.380Z,17.13
2019-05-20T15:22:02.758Z,17.15
2019-05-20T15:24:29.069Z,17.25
2019-05-20T15:26:55.719Z,17.32
2019-05-20T15:29:28.100Z,17.36
2019-05-20T15:31:48.274Z,17.42
2019-05-20T15:34:14.628Z,17.48
2019-05-20T15:36:40.962Z,17.42
2019-05-20T15:39:07.283Z,17.41
2019-05-20T15:41:33.655Z,17.42
2019-05-20T15:43:59.941Z,17.48
2019-05-20T15:46:26.255Z,17.47
2019-05-20T15:48:52.575Z,17.64
2019-05-20T15:51:18.878Z,17.73
2019-05-20T15:53:45.218Z,17.77
2019-05-20T15:56:11.580Z,17.74
2019-05-20T15:58:37.879Z,17.72
2019-05-20T16:01:04.198Z,17.55
2019-05-20T16:03:30.467Z,17.29
2019-05-20T16:05:59.758Z,16.98
2019-05-20T16:08:23.112Z,16.91
2019-05-20T16:10:49.447Z,16.89
2019-05-20T16:13:15.753Z,16.84
2019-05-20T16:15:42.084Z,16.75
2019-05-20T16:18:08.429Z,16.75
2019-05-20T16:20:34.728Z,16.75
2019-05-20T16:23:01.088Z,16.73
2019-05-20T16:25:27.398Z,16.63
2019-05-20T16:27:53.756Z,16.55
2019-05-20T16:30:20.039Z,16.60
2019-05-20T16:32:46.365Z,16.66
2019-05-20T16:35:12.689Z,16.58
2019-05-20T16:37:39.014Z,16.51
2019-05-20T16:40:05.377Z,16.52
2019-05-20T16:42:31.698Z,16.52
2019-05-20T16:44:58.007Z,16.49
2019-05-20T16:47:24.342Z,16.43
2019-05-20T16:49:50.653Z,16.38
2019-05-20T16:52:17.029Z,16.32
2019-05-20T16:54:43.341Z,16.32
2019-05-20T16:57:09.664Z,16.29
2019-05-20T16:59:35.988Z,16.29
2019-05-20T17:02:02.290Z,16.31
2019-05-20T17:04:28.647Z,16.34
2019-05-20T17:06:54.928Z,16.33
2019-05-20T17:09:21.294Z,16.28
2019-05-20T17:11:47.598Z,16.25
2019-05-20T17:14:13.938Z,16.27
2019-05-20T17:16:40.263Z,16.27
2019-05-20T17:19:06.579Z,16.27
2019-05-20T17:21:32.913Z,16.27
2019-05-20T17:23:59.216Z,16.25
2019-05-20T17:26:25.545Z,16.24
2019-05-20T17:28:51.863Z,16.26
2019-05-20T17:31:18.194Z,16.28
2019-05-20T17:33:44.522Z,16.29
2019-05-20T17:36:10.822Z,16.19
2019-05-20T17:38:37.149Z,16.19
2019-05-20T17:41:03.458Z,16.05
2019-05-20T17:43:29.801Z,15.75
2019-05-20T17:45:56.123Z,15.52
2019-05-20T17:48:22.434Z,15.45
2019-05-20T17:50:48.815Z,15.43
2019-05-20T17:53:15.086Z,15.37
2019-05-20T17:55:41.416Z,15.29
2019-05-20T17:58:07.735Z,15.22
2019-05-20T18:00:34.035Z,15.18
2019-05-20T18:03:00.671Z,15.24
2019-05-20T18:05:26.979Z,15.29
2019-05-20T18:07:53.332Z,15.31
2019-05-20T18:10:19.652Z,15.26
2019-05-20T18:12:45.990Z,15.22
2019-05-20T18:15:12.322Z,15.21
2019-05-20T18:17:38.645Z,15.13
2019-05-20T18:20:04.960Z,15.09
2019-05-20T18:22:31.274Z,15.06
2019-05-20T18:24:58.566Z,15.22
2019-05-20T18:27:24.991Z,15.14
2019-05-20T18:29:51.348Z,14.89
2019-05-20T18:32:17.651Z,14.77
2019-05-20T18:34:43.964Z,14.78
2019-05-20T18:37:10.288Z,15.01
2019-05-20T18:39:36.597Z,15.02
2019-05-20T18:42:02.927Z,15.15
2019-05-20T18:44:29.257Z,15.23
2019-05-20T18:46:55.585Z,15.25
2019-05-20T18:49:21.899Z,14.98
2019-05-20T18:51:48.229Z,15.00
2019-05-20T18:54:14.566Z,15.15
2019-05-20T18:56:40.896Z,15.24
2019-05-20T18:59:07.229Z,15.35
2019-05-20T19:01:47.326Z,15.21
2019-05-20T19:04:00.219Z,15.02
2019-05-20T19:06:26.582Z,15.02
2019-05-20T19:08:52.888Z,14.90
2019-05-20T19:11:19.208Z,14.85
2019-05-20T19:13:45.531Z,14.82
2019-05-20T19:16:11.851Z,14.77
2019-05-20T19:18:38.197Z,14.71
2019-05-20T19:21:04.497Z,14.63
2019-05-20T19:23:30.828Z,14.62
2019-05-20T19:25:57.133Z,14.46
2019-05-20T19:28:23.468Z,14.43
2019-05-20T19:30:49.770Z,14.36
2019-05-20T19:33:16.082Z,14.30
2019-05-20T19:35:42.459Z,14.24
2019-05-20T19:38:08.741Z,14.22
2019-05-20T19:40:35.079Z,14.20
2019-05-20T19:43:01.405Z,14.15
2019-05-20T19:45:27.715Z,14.12
2019-05-20T19:47:54.047Z,13.98
2019-05-20T19:50:20.348Z,13.81
2019-05-20T19:52:46.673Z,13.75
2019-05-20T19:55:13.000Z,13.78
2019-05-20T19:57:39.303Z,13.79
2019-05-20T20:00:05.624Z,13.82
2019-05-20T20:02:31.928Z,13.79
2019-05-20T20:04:58.251Z,13.73
2019-05-20T20:07:24.565Z,13.68
2019-05-20T20:09:50.897Z,13.74
2019-05-20T20:12:17.218Z,13.77
2019-05-20T20:14:43.575Z,13.76
2019-05-20T20:17:09.905Z,13.76
2019-05-20T20:19:36.391Z,13.83
2019-05-20T20:22:02.707Z,13.83
2019-05-20T20:24:29.036Z,13.78
2019-05-20T20:26:55.344Z,13.68
2019-05-20T20:29:21.702Z,13.59
2019-05-20T20:31:48.024Z,13.68
2019-05-20T20:34:14.372Z,13.71
2019-05-20T20:36:40.710Z,13.59
2019-05-20T20:39:07.018Z,13.56
2019-05-20T20:41:33.342Z,13.37
2019-05-20T20:43:59.648Z,13.27
2019-05-20T20:46:25.980Z,13.24
2019-05-20T20:48:52.291Z,13.07
2019-05-20T20:51:18.599Z,13.11
2019-05-20T20:53:44.926Z,13.16
2019-05-20T20:56:24.080Z,13.19
2019-05-20T20:58:37.561Z,13.30
2019-05-20T21:01:03.860Z,13.30
2019-05-20T21:03:30.187Z,13.23
2019-05-20T21:05:56.492Z,13.10
2019-05-20T21:08:22.826Z,13.19
2019-05-20T21:10:49.143Z,13.21
2019-05-20T21:13:15.452Z,13.22
2019-05-20T21:15:41.784Z,13.33
2019-05-20T21:18:08.099Z,13.28
2019-05-20T21:20:34.421Z,13.21
2019-05-20T21:23:00.729Z,13.04
2019-05-20T21:25:27.077Z,13.05
2019-05-20T21:27:53.410Z,13.09
2019-05-20T21:30:19.711Z,13.09
2019-05-20T21:32:46.038Z,13.12
2019-05-20T21:35:12.368Z,13.15
2019-05-20T21:37:38.710Z,13.06
2019-05-20T21:40:05.033Z,13.03
2019-05-20T21:42:31.344Z,13.02
2019-05-20T21:44:57.715Z,12.96
2019-05-20T21:47:23.980Z,12.81
2019-05-20T21:49:50.301Z,12.70
2019-05-20T21:52:16.617Z,12.70
2019-05-20T21:54:42.946Z,12.73
2019-05-20T21:57:09.273Z,12.73
2019-05-20T21:59:35.584Z,12.70
2019-05-20T22:02:01.906Z,12.69
2019-05-20T22:04:28.212Z,12.73
2019-05-20T22:06:54.544Z,12.82
2019-05-20T22:09:20.878Z,12.84
2019-05-20T22:11:47.195Z,12.89
2019-05-20T22:14:13.524Z,12.87
2019-05-20T22:16:39.928Z,12.96
2019-05-20T22:19:06.206Z,12.91
2019-05-20T22:21:32.529Z,12.80
2019-05-20T22:23:58.895Z,12.96
2019-05-20T22:26:25.190Z,13.01
2019-05-20T22:28:51.531Z,12.84
2019-05-20T22:31:17.858Z,12.57
2019-05-20T22:33:44.166Z,12.71
2019-05-20T22:36:10.488Z,12.80
2019-05-20T22:38:36.830Z,12.65
2019-05-20T22:41:03.142Z,12.54
2019-05-20T22:43:29.447Z,12.51
2019-05-20T22:45:55.776Z,12.42
2019-05-20T22:48:22.117Z,12.41
2019-05-20T22:50:48.989Z,12.26
2019-05-20T22:53:14.749Z,12.20
2019-05-20T22:55:41.064Z,12.22
2019-05-20T22:58:07.368Z,12.25
2019-05-20T23:00:33.703Z,12.27
2019-05-20T23:03:00.025Z,12.38
2019-05-20T23:05:26.352Z,12.33
2019-05-20T23:07:52.679Z,12.14
2019-05-20T23:10:18.981Z,12.05
2019-05-20T23:12:45.321Z,12.15
2019-05-20T23:15:11.637Z,12.12
2019-05-20T23:17:37.971Z,12.20
2019-05-20T23:20:04.285Z,12.19
2019-05-20T23:22:30.615Z,12.04
2019-05-20T23:24:56.923Z,12.02
2019-05-20T23:27:23.236Z,12.09
2019-05-20T23:29:49.572Z,12.13
2019-05-20T23:32:15.884Z,12.11
2019-05-20T23:34:42.217Z,12.13
2019-05-20T23:37:08.523Z,12.12
2019-05-20T23:39:34.854Z,12.13
2019-05-20T23:42:01.159Z,12.08
2019-05-20T23:44:27.496Z,12.04
2019-05-20T23:46:53.815Z,12.07
2019-05-20T23:49:20.125Z,12.08
2019-05-20T23:51:46.453Z,12.08
2019-05-20T23:54:12.761Z,12.13
2019-05-20T23:56:39.089Z,12.11
2019-05-20T23:59:05.397Z,12.06
